Time,TemperatureF,DewpointF,PressureIn,WindDirection,WindDirectionDegrees,WindSpeedMPH,WindSpeedGustMPH,Humidity,HourlyPrecipIn,Conditions,Clouds,dailyrainin,SoftwareType,DateUTC
2013-04-05 00:00:00,36.9,34.8,30.00,NW,314,0.0,0.0,92,0.00,,,0.00,VWS V14.01,2013-04-05 04:00:00,
2013-04-05 00:05:00,36.8,34.7,30.00,ENE,67,0.0,1.0,92,0.00,,,0.00,VWS V14.01,2013-04-05 04:05:00,
2013-04-05 00:10:00,36.8,34.7,30.00,ENE,67,0.0,1.0,92,0.00,,,0.00,VWS V14.01,2013-04-05 04:10:00,
2013-04-05 00:15:00,36.7,34.6,30.00,ENE,67,0.0,2.0,92,0.00,,,0.00,VWS V14.01,2013-04-05 04:15:00,
2013-04-05 00:20:00,36.6,34.5,30.00,ENE,57,0.0,2.0,92,0.00,,,0.00,VWS V14.01,2013-04-05 04:20:00,
2013-04-05 00:25:00,36.5,34.4,30.00,NE,56,0.0,4.0,92,0.00,,,0.00,VWS V14.01,2013-04-05 04:25:00,
2013-04-05 00:30:00,36.4,34.3,30.00,NE,56,0.0,0.0,92,0.00,,,0.00,VWS V14.01,2013-04-05 04:30:00,
2013-04-05 00:35:00,36.3,34.5,30.00,NE,56,0.0,0.0,93,0.00,,,0.00,VWS V14.01,2013-04-05 04:35:00,
2013-04-05 00:40:00,36.3,34.5,30.00,NE,56,0.0,0.0,93,0.00,,,0.00,VWS V14.01,2013-04-05 04:40:00,
2013-04-05 00:45:00,36.3,34.5,30.01,NE,56,0.0,0.0,93,0.00,,,0.00,VWS V14.01,2013-04-05 04:45:00,
2013-04-05 00:50:00,36.3,34.5,30.01,NE,56,0.0,0.0,93,0.00,,,0.00,VWS V14.01,2013-04-05 04:50:00,
2013-04-05 00:55:00,36.3,34.5,30.01,NE,56,0.0,0.0,93,0.00,,,0.00,VWS V14.01,2013-04-05 04:55:00,
2013-04-05 01:00:00,36.2,34.4,30.01,NE,56,0.0,0.0,93,0.00,,,0.00,VWS V14.01,2013-04-05 05:00:00,
2013-04-05 01:05:00,36.3,34.5,30.01,NE,56,0.0,0.0,93,0.00,,,0.00,VWS V14.01,2013-04-05 05:05:00,
2013-04-05 01:10:00,36.3,34.5,30.01,NE,56,0.0,0.0,93,0.00,,,0.00,VWS V14.01,2013-04-05 05:10:00,
2013-04-05 01:15:00,36.3,34.5,30.01,NE,56,0.0,0.0,93,0.00,,,0.00,VWS V14.01,2013-04-05 05:15:00,
2013-04-05 01:20:00,36.2,34.4,30.01,NE,56,0.0,0.0,93,0.00,,,0.00,VWS V14.01,2013-04-05 05:20:00,
2013-04-05 01:25:00,36.2,34.4,30.00,NE,56,0.0,0.0,93,0.00,,,0.00,VWS V14.01,2013-04-05 05:25:00,
2013-04-05 01:30:00,36.2,34.4,30.00,NE,56,0.0,0.0,93,0.00,,,0.00,VWS V14.01,2013-04-05 05:30:00,
2013-04-05 01:35:00,36.2,34.4,30.00,NE,56,0.0,0.0,93,0.00,,,0.00,VWS V14.01,2013-04-05 05:35:00,
2013-04-05 01:40:00,36.2,34.6,30.00,NE,56,0.0,0.0,94,0.00,,,0.00,VWS V14.01,2013-04-05 05:40:00,
2013-04-05 01:45:00,36.2,34.6,30.00,NE,56,0.0,0.0,94,0.00,,,0.00,VWS V14.01,2013-04-05 05:45:00,
2013-04-05 01:50:00,36.2,34.6,30.00,NE,56,0.0,0.0,94,0.00,,,0.00,VWS V14.01,2013-04-05 05:50:00,
2013-04-05 01:55:00,36.1,34.5,30.00,NE,56,0.0,0.0,94,0.00,,,0.00,VWS V14.01,2013-04-05 05:55:00,
2013-04-05 02:00:00,36.2,34.6,30.00,NE,56,0.0,0.0,94,0.00,,,0.00,VWS V14.01,2013-04-05 06:00:00,
2013-04-05 02:05:00,36.2,34.6,30.00,NE,56,0.0,0.0,94,0.00,,,0.00,VWS V14.01,2013-04-05 06:05:00,
2013-04-05 02:10:00,36.2,34.6,30.00,NE,56,0.0,0.0,94,0.00,,,0.00,VWS V14.01,2013-04-05 06:10:00,
2013-04-05 02:15:00,36.2,34.6,30.00,NE,56,0.0,0.0,94,0.00,,,0.00,VWS V14.01,2013-04-05 06:15:00,
2013-04-05 02:20:00,36.2,34.6,30.00,NE,56,0.0,0.0,94,0.00,,,0.00,VWS V14.01,2013-04-05 06:20:00,
2013-04-05 02:25:00,36.2,34.6,30.00,NE,56,0.0,0.0,94,0.00,,,0.00,VWS V14.01,2013-04-05 06:25:00,
2013-04-05 02:30:00,36.2,34.6,30.00,NE,56,0.0,0.0,94,0.00,,,0.00,VWS V14.01,2013-04-05 06:30:00,
2013-04-05 02:35:00,36.2,34.6,29.99,NE,56,0.0,0.0,94,0.00,,,0.00,VWS V14.01,2013-04-05 06:35:00,
2013-04-05 02:40:00,36.3,34.7,29.99,NE,56,0.0,0.0,94,0.00,,,0.00,VWS V14.01,2013-04-05 06:40:00,
2013-04-05 02:45:00,36.3,34.7,29.99,NE,56,0.0,0.0,94,0.00,,,0.00,VWS V14.01,2013-04-05 06:45:00,
2013-04-05 02:50:00,36.2,34.6,29.99,NE,56,0.0,0.0,94,0.00,,,0.00,VWS V14.01,2013-04-05 06:50:00,
2013-04-05 02:55:00,36.3,34.7,29.99,NE,56,0.0,0.0,94,0.00,,,0.00,VWS V14.01,2013-04-05 06:55:00,
2013-04-05 03:00:00,36.3,34.7,29.99,NE,56,0.0,0.0,94,0.00,,,0.00,VWS V14.01,2013-04-05 07:00:00,
2013-04-05 03:05:00,36.4,34.8,29.99,NE,56,0.0,0.0,94,0.00,,,0.00,VWS V14.01,2013-04-05 07:05:00,
2013-04-05 03:10:00,36.4,34.8,30.00,NE,56,0.0,0.0,94,0.00,,,0.00,VWS V14.01,2013-04-05 07:10:00,
2013-04-05 03:15:00,36.4,34.8,30.00,NE,56,0.0,0.0,94,0.00,,,0.00,VWS V14.01,2013-04-05 07:15:00,
2013-04-05 03:20:00,36.4,34.8,30.00,NE,56,0.0,0.0,94,0.00,,,0.00,VWS V14.01,2013-04-05 07:20:00,
2013-04-05 03:25:00,36.4,34.8,29.99,NE,56,0.0,0.0,94,0.00,,,0.00,VWS V14.01,2013-04-05 07:25:00,
2013-04-05 03:30:00,36.5,34.9,30.00,NE,56,1.0,1.0,94,0.00,,,0.00,VWS V14.01,2013-04-05 07:30:00,
2013-04-05 03:35:00,36.5,34.9,30.00,NE,56,0.0,1.0,94,0.00,,,0.00,VWS V14.01,2013-04-05 07:35:00,
2013-04-05 03:40:00,36.6,35.0,30.00,NE,56,0.0,1.0,94,0.00,,,0.00,VWS V14.01,2013-04-05 07:40:00,
2013-04-05 03:45:00,36.6,35.0,30.00,NE,56,0.0,1.0,94,0.00,,,0.00,VWS V14.01,2013-04-05 07:45:00,
2013-04-05 03:50:00,36.6,35.0,30.00,East,88,0.0,1.0,94,0.00,,,0.00,VWS V14.01,2013-04-05 07:50:00,
2013-04-05 03:55:00,36.6,35.0,30.00,NW,311,1.0,1.0,94,0.00,,,0.00,VWS V14.01,2013-04-05 07:55:00,
2013-04-05 04:00:00,36.7,35.1,29.99,NW,311,0.0,0.0,94,0.00,,,0.00,VWS V14.01,2013-04-05 08:00:00,
2013-04-05 04:05:00,36.7,35.1,30.00,NW,311,0.0,0.0,94,0.00,,,0.00,VWS V14.01,2013-04-05 08:05:00,
2013-04-05 04:11:00,36.7,35.1,30.00,NW,311,0.0,0.0,94,0.00,,,0.00,VWS V14.01,2013-04-05 08:11:00,
2013-04-05 04:16:00,36.6,35.0,29.99,NW,311,0.0,1.0,94,0.00,,,0.00,VWS V14.01,2013-04-05 08:16:00,
2013-04-05 04:21:00,36.6,35.0,29.99,NW,311,0.0,1.0,94,0.00,,,0.00,VWS V14.01,2013-04-05 08:21:00,
2013-04-05 04:26:00,36.7,35.1,29.99,WNW,287,0.0,3.0,94,0.00,,,0.00,VWS V14.01,2013-04-05 08:26:00,
2013-04-05 04:30:00,36.5,34.9,30.00,NE,56,0.0,0.0,94,0.00,,,0.00,VWS V15.00,2013-04-05 08:30:00,
2013-04-05 04:31:00,36.7,35.1,29.99,WNW,285,3.0,3.0,94,0.00,,,0.00,VWS V14.01,2013-04-05 08:31:00,
2013-04-05 04:36:00,36.8,35.2,29.98,West,279,2.0,3.0,94,0.00,,,0.00,VWS V14.01,2013-04-05 08:36:00,
2013-04-05 04:41:00,36.8,35.2,29.98,West,279,3.0,4.0,94,0.00,,,0.00,VWS V14.01,2013-04-05 08:41:00,
2013-04-05 04:46:00,36.8,35.2,29.98,West,270,2.0,5.0,94,0.00,,,0.00,VWS V14.01,2013-04-05 08:46:00,
2013-04-05 04:51:00,36.9,35.3,29.98,WNW,293,2.0,7.0,94,0.00,,,0.00,VWS V14.01,2013-04-05 08:51:00,
2013-04-05 04:56:00,37.0,35.4,29.98,West,269,1.0,7.0,94,0.00,,,0.00,VWS V14.01,2013-04-05 08:56:00,
2013-04-05 05:00:00,36.7,35.1,30.00,NW,311,0.0,1.0,94,0.00,,,0.00,VWS V15.00,2013-04-05 09:00:00,
2013-04-05 05:01:00,37.1,35.5,29.97,WSW,258,0.0,2.0,94,0.00,,,0.00,VWS V14.01,2013-04-05 09:01:00,
2013-04-05 05:06:00,37.1,35.5,29.97,WSW,258,0.0,3.0,94,0.00,,,0.00,VWS V14.01,2013-04-05 09:06:00,
2013-04-05 05:11:00,37.2,35.6,29.97,West,272,3.0,6.0,94,0.00,,,0.00,VWS V14.01,2013-04-05 09:11:00,
2013-04-05 05:16:00,37.3,35.7,29.97,WNW,282,2.0,6.0,94,0.00,,,0.00,VWS V14.01,2013-04-05 09:16:00,
2013-04-05 05:21:00,37.5,35.9,29.97,NW,304,6.0,10.0,94,0.00,,,0.00,VWS V14.01,2013-04-05 09:21:00,
2013-04-05 05:26:00,37.8,36.2,29.97,NNE,22,2.0,10.0,94,0.00,,,0.00,VWS V14.01,2013-04-05 09:26:00,
2013-04-05 05:30:00,36.7,35.1,29.99,WNW,286,0.0,3.0,94,0.00,,,0.00,VWS V15.00,2013-04-05 09:30:00,
2013-04-05 05:31:00,38.1,36.3,29.97,WNW,289,0.0,7.0,93,0.00,,,0.00,VWS V14.01,2013-04-05 09:31:00,
2013-04-05 05:36:00,38.3,36.5,29.96,WSW,247,6.0,7.0,93,0.00,,,0.00,VWS V14.01,2013-04-05 09:36:00,
2013-04-05 05:41:00,38.5,36.4,29.96,West,262,0.0,7.0,92,0.00,,,0.00,VWS V14.01,2013-04-05 09:41:00,
2013-04-05 05:46:00,38.6,36.5,29.96,WSW,248,3.0,7.0,92,0.00,,,0.00,VWS V14.01,2013-04-05 09:46:00,
2013-04-05 05:51:00,38.8,36.7,29.96,WSW,245,1.0,10.0,92,0.00,,,0.00,VWS V14.01,2013-04-05 09:51:00,
2013-04-05 05:56:00,38.9,36.5,29.96,WSW,245,5.0,10.0,91,0.00,,,0.00,VWS V14.01,2013-04-05 09:56:00,
2013-04-05 06:00:00,37.0,35.4,29.97,WSW,258,0.0,7.0,94,0.00,,,0.00,VWS V15.00,2013-04-05 10:00:00,
2013-04-05 06:01:00,38.9,36.5,29.96,WNW,288,1.0,4.0,91,0.00,,,0.00,VWS V14.01,2013-04-05 10:01:00,
2013-04-05 06:06:00,39.0,36.6,29.96,SW,236,6.0,11.0,91,0.00,,,0.00,VWS V14.01,2013-04-05 10:06:00,
2013-04-05 06:11:00,38.9,36.2,29.96,WSW,248,5.0,12.0,90,0.00,,,0.00,VWS V14.01,2013-04-05 10:11:00,
2013-04-05 06:16:00,38.8,36.1,29.96,WNW,292,6.0,12.0,90,0.00,,,0.00,VWS V14.01,2013-04-05 10:16:00,
2013-04-05 06:21:00,38.7,36.0,29.96,SSW,205,2.0,12.0,90,0.00,,,0.00,VWS V14.01,2013-04-05 10:21:00,
2013-04-05 06:26:00,38.6,35.9,29.96,West,281,5.0,12.0,90,0.00,,,0.00,VWS V14.01,2013-04-05 10:26:00,
2013-04-05 06:30:00,38.0,36.2,29.97,West,279,2.0,10.0,93,0.00,,,0.00,VWS V15.00,2013-04-05 10:30:00,
2013-04-05 06:31:00,38.5,35.8,29.96,West,266,3.0,9.0,90,0.00,,,0.00,VWS V14.01,2013-04-05 10:31:00,
2013-04-05 06:36:00,38.6,35.9,29.96,West,274,3.0,13.0,90,0.00,,,0.00,VWS V14.01,2013-04-05 10:36:00,
2013-04-05 06:41:00,38.5,35.8,29.96,SW,228,0.0,13.0,90,0.00,,,0.00,VWS V14.01,2013-04-05 10:41:00,
2013-04-05 06:46:00,38.5,35.8,29.97,West,259,4.0,14.0,90,0.00,,,0.00,VWS V14.01,2013-04-05 10:46:00,
2013-04-05 06:51:00,38.5,35.8,29.98,WNW,298,2.0,14.0,90,0.00,,,0.00,VWS V14.01,2013-04-05 10:51:00,
2013-04-05 06:56:00,38.5,35.8,29.98,WNW,292,6.0,14.0,90,0.00,,,0.00,VWS V14.01,2013-04-05 10:56:00,
2013-04-05 07:00:00,38.9,36.5,29.96,West,259,3.0,10.0,91,0.00,,,0.00,VWS V15.00,2013-04-05 11:00:00,
2013-04-05 07:01:00,38.4,35.7,29.99,West,263,3.0,4.0,90,0.00,,,0.00,VWS V14.01,2013-04-05 11:01:00,
2013-04-05 07:06:00,38.4,35.7,29.99,WNW,292,3.0,7.0,90,0.00,,,0.00,VWS V14.01,2013-04-05 11:06:00,
2013-04-05 07:11:00,38.4,35.7,30.00,West,279,0.0,7.0,90,0.00,,,0.00,VWS V14.01,2013-04-05 11:11:00,
2013-04-05 07:16:00,38.3,35.6,30.00,SW,225,3.0,7.0,90,0.00,,,0.00,VWS V14.01,2013-04-05 11:16:00,
2013-04-05 07:21:00,38.3,35.6,30.00,West,276,0.0,7.0,90,0.00,,,0.00,VWS V14.01,2013-04-05 11:21:00,
2013-04-05 07:27:00,38.2,35.8,30.00,West,279,1.0,7.0,91,0.00,,,0.00,VWS V14.01,2013-04-05 11:27:00,
2013-04-05 07:30:00,38.6,35.9,29.96,WNW,282,4.0,12.0,90,0.00,,,0.00,VWS V15.00,2013-04-05 11:30:00,
2013-04-05 07:32:00,38.2,35.8,30.01,WNW,284,8.0,8.0,91,0.00,,,0.00,VWS V14.01,2013-04-05 11:32:00,
2013-04-05 07:37:00,38.3,35.9,30.01,SW,235,3.0,9.0,91,0.00,,,0.00,VWS V14.01,2013-04-05 11:37:00,
2013-04-05 07:42:00,38.4,36.0,30.02,West,273,1.0,9.0,91,0.00,,,0.00,VWS V14.01,2013-04-05 11:42:00,
2013-04-05 07:47:00,38.5,36.1,30.02,West,264,0.0,9.0,91,0.00,,,0.00,VWS V14.01,2013-04-05 11:47:00,
2013-04-05 07:52:00,38.6,36.2,30.02,WNW,302,0.0,9.0,91,0.00,,,0.00,VWS V14.01,2013-04-05 11:52:00,
2013-04-05 07:57:00,38.6,36.2,30.03,North,360,0.0,9.0,91,0.00,,,0.00,VWS V14.01,2013-04-05 11:57:00,
2013-04-05 08:00:00,38.5,35.8,29.99,WSW,249,0.0,14.0,90,0.00,,,0.00,VWS V15.00,2013-04-05 12:00:00,
2013-04-05 08:02:00,38.7,36.3,30.03,North,360,0.0,0.0,91,0.00,,,0.00,VWS V14.01,2013-04-05 12:02:00,
2013-04-05 08:07:00,38.8,36.4,30.04,North,360,0.0,0.0,91,0.00,,,0.00,VWS V14.01,2013-04-05 12:07:00,
2013-04-05 08:12:00,38.9,36.5,30.04,WSW,251,0.0,3.0,91,0.00,,,0.00,VWS V14.01,2013-04-05 12:12:00,
2013-04-05 08:17:00,39.1,36.7,30.04,West,273,1.0,5.0,91,0.00,,,0.00,VWS V14.01,2013-04-05 12:17:00,
2013-04-05 08:22:00,39.3,36.9,30.05,WSW,244,0.0,5.0,91,0.00,,,0.00,VWS V14.01,2013-04-05 12:22:00,
2013-04-05 08:27:00,39.6,36.9,30.05,SW,216,3.0,5.0,90,0.00,,,0.00,VWS V14.01,2013-04-05 12:27:00,
2013-04-05 08:30:00,38.2,35.8,30.00,WNW,286,4.0,7.0,91,0.00,,,0.00,VWS V15.00,2013-04-05 12:30:00,
2013-04-05 08:32:00,39.8,37.1,30.05,SW,234,1.0,2.0,90,0.00,,,0.00,VWS V14.01,2013-04-05 12:32:00,
2013-04-05 08:37:00,40.1,37.4,30.05,SSW,209,0.0,3.0,90,0.00,,,0.00,VWS V14.01,2013-04-05 12:37:00,
2013-04-05 08:42:00,40.2,37.5,30.05,West,264,0.0,4.0,90,0.00,,,0.00,VWS V14.01,2013-04-05 12:42:00,
2013-04-05 08:47:00,40.3,37.3,30.05,South,184,0.0,4.0,89,0.00,,,0.00,VWS V14.01,2013-04-05 12:47:00,
2013-04-05 08:52:00,40.5,37.5,30.05,SW,234,1.0,4.0,89,0.00,,,0.00,VWS V14.01,2013-04-05 12:52:00,
2013-04-05 08:57:00,40.6,37.6,30.05,West,259,0.0,4.0,89,0.00,,,0.00,VWS V14.01,2013-04-05 12:57:00,
2013-04-05 09:00:00,38.7,36.3,30.03,North,360,0.0,9.0,91,0.00,,,0.00,VWS V15.00,2013-04-05 13:00:00,
2013-04-05 09:02:00,40.9,37.9,30.05,West,259,0.0,1.0,89,0.00,,,0.00,VWS V14.01,2013-04-05 13:02:00,
2013-04-05 09:07:00,41.0,39.4,30.05,SW,236,2.0,5.0,94,0.00,,,0.00,VWS V14.01,2013-04-05 13:07:00,
2013-04-05 09:12:00,41.2,37.9,30.05,WSW,237,5.0,6.0,88,0.00,,,0.00,VWS V14.01,2013-04-05 13:12:00,
2013-04-05 09:17:00,41.3,38.3,30.06,WSW,241,4.0,6.0,89,0.00,,,0.00,VWS V14.01,2013-04-05 13:17:00,
2013-04-05 09:22:00,41.7,38.4,30.05,West,260,0.0,6.0,88,0.00,,,0.00,VWS V14.01,2013-04-05 13:22:00,
2013-04-05 09:27:00,42.1,38.5,30.05,WSW,254,5.0,13.0,87,0.00,,,0.00,VWS V14.01,2013-04-05 13:27:00,
2013-04-05 09:30:00,39.6,36.9,30.05,South,180,0.0,5.0,90,0.00,,,0.00,VWS V15.00,2013-04-05 13:30:00,
2013-04-05 09:32:00,42.2,38.6,30.05,WSW,252,0.0,7.0,87,0.00,,,0.00,VWS V14.01,2013-04-05 13:32:00,
2013-04-05 09:37:00,42.4,38.8,30.05,WSW,242,7.0,10.0,87,0.00,,,0.00,VWS V14.01,2013-04-05 13:37:00,
2013-04-05 09:42:00,42.6,39.0,30.06,West,268,5.0,10.0,87,0.00,,,0.00,VWS V14.01,2013-04-05 13:42:00,
2013-04-05 09:47:00,42.9,39.3,30.05,WSW,244,3.0,10.0,87,0.00,,,0.00,VWS V14.01,2013-04-05 13:47:00,
2013-04-05 09:52:00,43.2,39.6,30.06,NNW,338,5.0,10.0,87,0.00,,,0.00,VWS V14.01,2013-04-05 13:52:00,
2013-04-05 09:57:00,43.5,39.3,30.06,SW,224,0.0,10.0,85,0.00,,,0.00,VWS V14.01,2013-04-05 13:57:00,
2013-04-05 10:00:00,40.7,37.7,30.05,West,259,1.0,4.0,89,0.00,,,0.00,VWS V15.00,2013-04-05 14:00:00,
2013-04-05 10:02:00,43.8,39.9,30.06,West,266,1.0,5.0,86,0.00,,,0.00,VWS V14.01,2013-04-05 14:02:00,
2013-04-05 10:07:00,44.1,40.2,30.06,ESE,104,2.0,6.0,86,0.00,,,0.00,VWS V14.01,2013-04-05 14:07:00,
2013-04-05 10:12:00,44.2,39.7,30.06,West,275,2.0,6.0,84,0.00,,,0.00,VWS V14.01,2013-04-05 14:12:00,
2013-04-05 10:17:00,44.0,39.8,30.05,SW,234,4.0,9.0,85,0.00,,,0.00,VWS V14.01,2013-04-05 14:17:00,
2013-04-05 10:22:00,44.3,39.8,30.05,WNW,285,6.0,9.0,84,0.00,,,0.00,VWS V14.01,2013-04-05 14:22:00,
2013-04-05 10:27:00,44.4,39.6,30.06,South,170,2.0,9.0,83,0.00,,,0.00,VWS V14.01,2013-04-05 14:27:00,
2013-04-05 10:30:00,42.2,38.6,30.05,WSW,247,7.0,13.0,87,0.00,,,0.00,VWS V15.00,2013-04-05 14:30:00,
2013-04-05 10:33:00,44.6,40.1,30.05,SSW,207,2.0,6.0,84,0.00,,,0.00,VWS V14.01,2013-04-05 14:33:00,
2013-04-05 10:38:00,44.7,39.5,30.05,WSW,253,0.0,8.0,82,0.00,,,0.00,VWS V14.01,2013-04-05 14:38:00,
2013-04-05 10:43:00,45.0,40.2,30.05,WNW,299,0.0,11.0,83,0.00,,,0.00,VWS V14.01,2013-04-05 14:43:00,
2013-04-05 10:48:00,45.4,40.2,30.06,WSW,250,3.0,11.0,82,0.00,,,0.00,VWS V14.01,2013-04-05 14:48:00,
2013-04-05 10:53:00,46.0,40.5,30.06,South,191,3.0,11.0,81,0.00,,,0.00,VWS V14.01,2013-04-05 14:53:00,
2013-04-05 10:58:00,46.8,41.3,30.06,SSW,200,2.0,11.0,81,0.00,,,0.00,VWS V14.01,2013-04-05 14:58:00,
2013-04-05 11:00:00,43.6,39.7,30.06,South,180,3.0,10.0,86,0.00,,,0.00,VWS V15.00,2013-04-05 15:00:00,
2013-04-05 11:03:00,47.1,41.3,30.06,NW,304,5.0,8.0,80,0.00,,,0.00,VWS V14.01,2013-04-05 15:03:00,
2013-04-05 11:08:00,47.3,41.5,30.06,West,265,4.0,8.0,80,0.00,,,0.00,VWS V14.01,2013-04-05 15:08:00,
2013-04-05 11:13:00,47.5,41.0,30.06,NW,317,3.0,8.0,78,0.00,,,0.00,VWS V14.01,2013-04-05 15:13:00,
2013-04-05 11:18:00,47.5,41.0,30.06,WNW,298,1.0,10.0,78,0.00,,,0.00,VWS V14.01,2013-04-05 15:18:00,
2013-04-05 11:23:00,47.7,41.5,30.06,West,272,1.0,10.0,79,0.00,,,0.00,VWS V14.01,2013-04-05 15:23:00,
2013-04-05 11:28:00,47.9,41.7,30.06,WSW,252,1.0,10.0,79,0.00,,,0.00,VWS V14.01,2013-04-05 15:28:00,
2013-04-05 11:30:00,44.4,39.6,30.06,WSW,242,2.0,9.0,83,0.00,,,0.00,VWS V15.00,2013-04-05 15:30:00,
2013-04-05 11:33:00,48.5,42.0,30.06,SW,223,3.0,7.0,78,0.00,,,0.00,VWS V14.01,2013-04-05 15:33:00,
2013-04-05 11:38:00,49.0,41.8,30.06,NNW,347,0.0,7.0,76,0.00,,,0.00,VWS V14.01,2013-04-05 15:38:00,
2013-04-05 11:43:00,49.0,40.7,30.06,West,276,6.0,9.0,73,0.00,,,0.00,VWS V14.01,2013-04-05 15:43:00,
2013-04-05 11:48:00,48.9,40.3,30.06,WNW,292,1.0,9.0,72,0.00,,,0.00,VWS V14.01,2013-04-05 15:48:00,
2013-04-05 11:53:00,49.1,41.2,30.05,North,355,5.0,9.0,74,0.00,,,0.00,VWS V14.01,2013-04-05 15:53:00,
2013-04-05 11:58:00,49.7,41.0,30.05,WSW,239,5.0,10.0,72,0.00,,,0.00,VWS V14.01,2013-04-05 15:58:00,
2013-04-05 12:00:00,47.0,41.5,30.06,SSW,209,2.0,11.0,81,0.00,,,0.00,VWS V15.00,2013-04-05 16:00:00,
2013-04-05 12:03:00,50.2,41.5,30.05,West,267,4.0,9.0,72,0.00,,,0.00,VWS V14.01,2013-04-05 16:03:00,
2013-04-05 12:08:00,50.5,40.7,30.05,ENE,75,2.0,9.0,69,0.00,,,0.00,VWS V14.01,2013-04-05 16:08:00,
2013-04-05 12:13:00,50.8,41.8,30.05,NNW,346,1.0,9.0,71,0.00,,,0.00,VWS V14.01,2013-04-05 16:13:00,
2013-04-05 12:18:00,51.5,41.7,30.05,NNW,338,2.0,9.0,69,0.00,,,0.00,VWS V14.01,2013-04-05 16:18:00,
2013-04-05 12:23:00,51.9,41.3,30.05,WNW,296,2.0,9.0,67,0.00,,,0.00,VWS V14.01,2013-04-05 16:23:00,
2013-04-05 12:28:00,52.3,41.3,30.04,SE,132,0.0,9.0,66,0.00,,,0.00,VWS V14.01,2013-04-05 16:28:00,
2013-04-05 12:30:00,48.0,42.1,30.06,North,5,2.0,10.0,80,0.00,,,0.00,VWS V15.00,2013-04-05 16:30:00,
2013-04-05 12:33:00,52.7,42.1,30.04,West,271,4.0,5.0,67,0.00,,,0.00,VWS V14.01,2013-04-05 16:33:00,
2013-04-05 12:38:00,53.3,41.8,30.04,WSW,250,1.0,7.0,65,0.00,,,0.00,VWS V14.01,2013-04-05 16:38:00,
2013-04-05 12:43:00,53.3,42.2,30.04,WNW,289,2.0,8.0,66,0.00,,,0.00,VWS V14.01,2013-04-05 16:43:00,
2013-04-05 12:48:00,53.3,42.2,30.04,NW,306,2.0,8.0,66,0.00,,,0.00,VWS V14.01,2013-04-05 16:48:00,
2013-04-05 12:53:00,53.5,42.4,30.03,East,94,0.0,8.0,66,0.00,,,0.00,VWS V14.01,2013-04-05 16:53:00,
2013-04-05 12:58:00,53.9,44.3,30.03,SE,138,1.0,8.0,70,0.00,,,0.00,VWS V14.01,2013-04-05 16:58:00,
2013-04-05 13:00:00,49.9,42.0,30.05,SW,215,7.0,10.0,74,0.00,,,0.00,VWS V15.00,2013-04-05 17:00:00,
2013-04-05 13:03:00,54.1,42.2,30.03,WSW,255,0.0,8.0,64,0.00,,,0.00,VWS V14.01,2013-04-05 17:03:00,
2013-04-05 13:08:00,54.3,43.2,30.04,WSW,249,3.0,8.0,66,0.00,,,0.00,VWS V14.01,2013-04-05 17:08:00,
2013-04-05 13:13:00,54.3,43.2,30.03,WNW,302,1.0,8.0,66,0.00,,,0.00,VWS V14.01,2013-04-05 17:13:00,
2013-04-05 13:18:00,54.4,43.3,30.03,WNW,303,3.0,8.0,66,0.00,,,0.00,VWS V14.01,2013-04-05 17:18:00,
2013-04-05 13:23:00,54.3,43.2,30.03,ENE,58,0.0,8.0,66,0.00,,,0.00,VWS V14.01,2013-04-05 17:23:00,
2013-04-05 13:28:00,55.0,43.9,30.02,SW,235,3.0,8.0,66,0.00,,,0.00,VWS V14.01,2013-04-05 17:28:00,
2013-04-05 13:30:00,52.3,41.3,30.04,NW,319,4.0,9.0,66,0.00,,,0.00,VWS V15.00,2013-04-05 17:30:00,
2013-04-05 13:33:00,55.3,42.5,30.02,NW,319,0.0,6.0,62,0.00,,,0.00,VWS V14.01,2013-04-05 17:33:00,
2013-04-05 13:38:00,55.4,43.4,30.02,SE,127,0.0,6.0,64,0.00,,,0.00,VWS V14.01,2013-04-05 17:38:00,
2013-04-05 13:43:00,56.1,44.1,30.02,East,88,5.0,7.0,64,0.00,,,0.00,VWS V14.01,2013-04-05 17:43:00,
2013-04-05 13:48:00,56.3,41.7,30.02,NNW,335,1.0,8.0,58,0.00,,,0.00,VWS V14.01,2013-04-05 17:48:00,
2013-04-05 13:53:00,56.4,40.9,30.01,NW,323,3.0,8.0,56,0.00,,,0.00,VWS V14.01,2013-04-05 17:53:00,
2013-04-05 13:58:00,56.9,40.0,30.02,NNW,341,1.0,8.0,53,0.00,,,0.00,VWS V14.01,2013-04-05 17:58:00,
2013-04-05 14:00:00,54.0,42.5,30.03,WNW,282,5.0,8.0,65,0.00,,,0.00,VWS V15.00,2013-04-05 18:00:00,
2013-04-05 14:03:00,57.3,39.8,30.02,WNW,301,0.0,5.0,52,0.00,,,0.00,VWS V14.01,2013-04-05 18:03:00,
2013-04-05 14:08:00,57.4,41.8,30.02,West,267,4.0,7.0,56,0.00,,,0.00,VWS V14.01,2013-04-05 18:08:00,
2013-04-05 14:13:00,56.4,36.4,30.01,WNW,288,2.0,7.0,47,0.00,,,0.00,VWS V14.01,2013-04-05 18:13:00,
2013-04-05 14:18:00,56.9,40.4,30.01,West,275,1.0,7.0,54,0.00,,,0.00,VWS V14.01,2013-04-05 18:18:00,
2013-04-05 14:23:00,57.6,42.5,30.01,West,263,1.0,7.0,57,0.00,,,0.00,VWS V14.01,2013-04-05 18:23:00,
2013-04-05 14:28:00,57.2,41.7,30.01,WSW,258,6.0,11.0,56,0.00,,,0.00,VWS V14.01,2013-04-05 18:28:00,
2013-04-05 14:30:00,55.2,43.7,30.02,NNW,327,3.0,8.0,65,0.00,,,0.00,VWS V15.00,2013-04-05 18:30:00,
2013-04-05 14:33:00,55.7,41.2,30.01,West,260,6.0,13.0,58,0.00,,,0.00,VWS V14.01,2013-04-05 18:33:00,
2013-04-05 14:39:00,55.8,42.1,30.01,WSW,247,6.0,13.0,60,0.00,,,0.00,VWS V14.01,2013-04-05 18:39:00,
2013-04-05 14:44:00,55.7,42.9,30.00,SW,232,3.0,13.0,62,0.00,,,0.00,VWS V14.01,2013-04-05 18:44:00,
2013-04-05 14:49:00,55.9,41.3,30.00,SW,220,6.0,13.0,58,0.00,,,0.00,VWS V14.01,2013-04-05 18:49:00,
2013-04-05 14:54:00,55.8,42.6,30.00,West,274,10.0,13.0,61,0.00,,,0.00,VWS V14.01,2013-04-05 18:54:00,
2013-04-05 14:59:00,56.1,42.8,30.00,SW,233,2.0,13.0,61,0.00,,,0.00,VWS V14.01,2013-04-05 18:59:00,
2013-04-05 15:00:00,57.0,39.1,30.02,NNW,348,0.0,8.0,51,0.00,,,0.00,VWS V15.00,2013-04-05 19:00:00,
2013-04-05 15:04:00,56.3,42.2,30.00,SW,219,6.0,14.0,59,0.00,,,0.00,VWS V14.01,2013-04-05 19:04:00,
2013-04-05 15:09:00,55.7,42.5,30.00,WSW,237,10.0,14.0,61,0.00,,,0.00,VWS V14.01,2013-04-05 19:09:00,
2013-04-05 15:14:00,55.5,42.3,30.00,WNW,297,5.0,14.0,61,0.00,,,0.00,VWS V14.01,2013-04-05 19:14:00,
2013-04-05 15:19:00,55.6,42.4,30.00,West,269,4.0,14.0,61,0.00,,,0.00,VWS V14.01,2013-04-05 19:19:00,
2013-04-05 15:24:00,55.5,43.1,30.00,West,279,6.0,14.0,63,0.00,,,0.00,VWS V14.01,2013-04-05 19:24:00,
2013-04-05 15:29:00,55.7,42.9,30.00,WSW,245,12.0,14.0,62,0.00,,,0.00,VWS V14.01,2013-04-05 19:29:00,
2013-04-05 15:30:00,56.9,41.8,30.01,WSW,252,5.0,11.0,57,0.00,,,0.00,VWS V15.00,2013-04-05 19:30:00,
2013-04-05 15:34:00,56.2,43.4,30.00,WSW,244,2.0,12.0,62,0.00,,,0.00,VWS V14.01,2013-04-05 19:34:00,
2013-04-05 15:39:00,56.7,43.4,30.00,WNW,300,3.0,12.0,61,0.00,,,0.00,VWS V14.01,2013-04-05 19:39:00,
2013-04-05 15:44:00,56.3,42.6,30.00,West,271,7.0,14.0,60,0.00,,,0.00,VWS V14.01,2013-04-05 19:44:00,
2013-04-05 15:49:00,56.4,42.7,30.00,WSW,254,8.0,14.0,60,0.00,,,0.00,VWS V14.01,2013-04-05 19:49:00,
2013-04-05 15:54:00,56.4,42.3,30.00,WNW,302,0.0,14.0,59,0.00,,,0.00,VWS V14.01,2013-04-05 19:54:00,
2013-04-05 15:59:00,56.9,42.7,29.99,West,274,1.0,14.0,59,0.00,,,0.00,VWS V14.01,2013-04-05 19:59:00,
2013-04-05 16:00:00,56.2,43.4,30.00,SW,234,3.0,13.0,62,0.00,,,0.00,VWS V15.00,2013-04-05 20:00:00,
2013-04-05 16:04:00,57.4,42.3,30.00,SW,225,7.0,10.0,57,0.00,,,0.00,VWS V14.01,2013-04-05 20:04:00,
2013-04-05 16:09:00,56.8,42.2,30.00,West,263,6.0,10.0,58,0.00,,,0.00,VWS V14.01,2013-04-05 20:09:00,
2013-04-05 16:14:00,57.2,43.0,30.00,WSW,249,5.0,10.0,59,0.00,,,0.00,VWS V14.01,2013-04-05 20:14:00,
2013-04-05 16:19:00,56.9,42.3,29.99,West,259,5.0,12.0,58,0.00,,,0.00,VWS V14.01,2013-04-05 20:19:00,
2013-04-05 16:24:00,56.9,42.3,29.99,NW,304,2.0,12.0,58,0.00,,,0.00,VWS V14.01,2013-04-05 20:24:00,
2013-04-05 16:29:00,56.9,41.4,30.00,WSW,241,6.0,6.0,56,0.00,,,0.00,VWS V14.01,2013-04-05 20:29:00,
2013-04-05 16:30:00,55.7,42.9,30.00,WSW,245,12.0,14.0,62,0.00,,,0.00,VWS V15.00,2013-04-05 20:30:00,
2013-04-05 16:34:00,57.2,42.6,30.00,West,277,2.0,6.0,58,0.00,,,0.00,VWS V14.01,2013-04-05 20:34:00,
2013-04-05 16:39:00,57.6,41.1,29.99,SW,229,3.0,10.0,54,0.00,,,0.00,VWS V14.01,2013-04-05 20:39:00,
2013-04-05 16:44:00,57.4,40.9,29.99,West,263,7.0,11.0,54,0.00,,,0.00,VWS V14.01,2013-04-05 20:44:00,
2013-04-05 16:49:00,57.1,40.6,30.00,NW,308,0.0,11.0,54,0.00,,,0.00,VWS V14.01,2013-04-05 20:49:00,
2013-04-05 16:54:00,57.2,40.7,30.00,ESE,115,3.0,11.0,54,0.00,,,0.00,VWS V14.01,2013-04-05 20:54:00,
2013-04-05 17:00:00,57.6,34.7,30.00,North,5,2.0,3.0,42,0.00,,,0.00,VWS V14.01,2013-04-05 21:00:00,
2013-04-05 17:05:00,58.0,37.4,30.00,NW,321,1.0,6.0,46,0.00,,,0.00,VWS V14.01,2013-04-05 21:05:00,
2013-04-05 17:10:00,58.4,33.6,30.00,North,5,2.0,7.0,39,0.00,,,0.00,VWS V14.01,2013-04-05 21:10:00,
2013-04-05 17:15:00,59.0,33.5,30.00,West,277,0.0,7.0,38,0.00,,,0.00,VWS V14.01,2013-04-05 21:15:00,
2013-04-05 17:20:00,59.7,34.1,30.00,SSE,166,0.0,7.0,38,0.00,,,0.00,VWS V14.01,2013-04-05 21:20:00,
2013-04-05 17:25:00,59.8,37.3,30.00,NE,38,0.0,7.0,43,0.00,,,0.00,VWS V14.01,2013-04-05 21:25:00,
2013-04-05 17:30:00,59.6,38.8,30.00,SW,214,4.0,6.0,46,0.00,,,0.00,VWS V14.01,2013-04-05 21:30:00,
2013-04-05 17:35:00,59.0,36.6,30.00,WSW,240,3.0,11.0,43,0.00,,,0.00,VWS V14.01,2013-04-05 21:35:00,
2013-04-05 17:40:00,58.8,39.2,30.00,ENE,73,1.0,11.0,48,0.00,,,0.00,VWS V14.01,2013-04-05 21:40:00,
2013-04-05 17:45:00,59.0,36.6,30.01,NE,44,0.0,11.0,43,0.00,,,0.00,VWS V14.01,2013-04-05 21:45:00,
2013-04-05 17:50:00,59.5,37.0,30.01,NE,44,0.0,11.0,43,0.00,,,0.00,VWS V14.01,2013-04-05 21:50:00,
2013-04-05 17:55:00,60.0,33.7,30.01,NNE,18,0.0,11.0,37,0.00,,,0.00,VWS V14.01,2013-04-05 21:55:00,
2013-04-05 18:00:00,60.0,34.3,30.01,ENE,66,0.0,1.0,38,0.00,,,0.00,VWS V14.01,2013-04-05 22:00:00,
2013-04-05 18:05:00,60.0,36.9,30.01,WNW,288,2.0,4.0,42,0.00,,,0.00,VWS V14.01,2013-04-05 22:05:00,
2013-04-05 18:10:00,59.5,38.7,30.01,West,265,1.0,7.0,46,0.00,,,0.00,VWS V14.01,2013-04-05 22:10:00,
2013-04-05 18:15:00,59.2,38.5,30.01,West,277,0.0,8.0,46,0.00,,,0.00,VWS V14.01,2013-04-05 22:15:00,
2013-04-05 18:20:00,58.6,38.5,30.01,SW,234,5.0,8.0,47,0.00,,,0.00,VWS V14.01,2013-04-05 22:20:00,
2013-04-05 18:25:00,57.4,38.4,30.01,West,263,0.0,10.0,49,0.00,,,0.00,VWS V14.01,2013-04-05 22:25:00,
2013-04-05 18:30:00,57.0,38.0,30.01,NW,313,3.0,3.0,49,0.00,,,0.00,VWS V14.01,2013-04-05 22:30:00,
2013-04-05 18:35:00,56.7,38.3,30.02,SW,214,3.0,6.0,50,0.00,,,0.00,VWS V14.01,2013-04-05 22:35:00,
2013-04-05 18:40:00,56.4,38.5,30.02,WSW,243,2.0,8.0,51,0.00,,,0.00,VWS V14.01,2013-04-05 22:40:00,
2013-04-05 18:45:00,56.1,38.7,30.02,SW,223,5.0,8.0,52,0.00,,,0.00,VWS V14.01,2013-04-05 22:45:00,
2013-04-05 18:50:00,55.8,38.5,30.02,SSW,194,0.0,8.0,52,0.00,,,0.00,VWS V14.01,2013-04-05 22:50:00,
2013-04-05 18:55:00,55.4,38.1,30.02,WNW,286,5.0,8.0,52,0.00,,,0.00,VWS V14.01,2013-04-05 22:55:00,
2013-04-05 19:00:00,55.0,38.2,30.02,West,265,3.0,3.0,53,0.00,,,0.00,VWS V14.01,2013-04-05 23:00:00,
2013-04-05 19:05:00,54.8,38.0,30.02,WNW,285,0.0,5.0,53,0.00,,,0.00,VWS V14.01,2013-04-05 23:05:00,
2013-04-05 19:10:00,54.6,38.3,30.02,WNW,286,2.0,5.0,54,0.00,,,0.00,VWS V14.01,2013-04-05 23:10:00,
2013-04-05 19:15:00,54.4,38.1,30.02,North,5,0.0,5.0,54,0.00,,,0.00,VWS V14.01,2013-04-05 23:15:00,
2013-04-05 19:20:00,54.2,38.9,30.03,NW,315,1.0,5.0,56,0.00,,,0.00,VWS V14.01,2013-04-05 23:20:00,
2013-04-05 19:25:00,54.0,38.2,30.03,NW,321,0.0,5.0,55,0.00,,,0.00,VWS V14.01,2013-04-05 23:25:00,
2013-04-05 19:30:00,53.7,38.4,30.03,NW,321,0.0,0.0,56,0.00,,,0.00,VWS V14.01,2013-04-05 23:30:00,
2013-04-05 19:35:00,53.5,37.8,30.03,West,265,0.0,3.0,55,0.00,,,0.00,VWS V14.01,2013-04-05 23:35:00,
2013-04-05 19:40:00,53.3,38.0,30.04,SSE,168,0.0,3.0,56,0.00,,,0.00,VWS V14.01,2013-04-05 23:40:00,
2013-04-05 19:45:00,53.1,38.7,30.04,West,274,0.0,3.0,58,0.00,,,0.00,VWS V14.01,2013-04-05 23:45:00,
2013-04-05 19:50:00,52.8,36.6,30.04,WSW,252,2.0,3.0,54,0.00,,,0.00,VWS V14.01,2013-04-05 23:50:00,
2013-04-05 19:55:00,52.7,37.0,30.04,SW,234,0.0,3.0,55,0.00,,,0.00,VWS V14.01,2013-04-05 23:55:00,
2013-04-05 20:00:00,52.5,36.8,30.05,WSW,241,2.0,4.0,55,0.00,,,0.00,VWS V14.01,2013-04-06 00:00:00,
2013-04-05 20:05:00,52.3,37.5,30.05,SW,228,3.0,5.0,57,0.00,,,0.00,VWS V14.01,2013-04-06 00:05:00,
2013-04-05 20:10:00,52.0,37.7,30.05,SW,231,1.0,5.0,58,0.00,,,0.00,VWS V14.01,2013-04-06 00:10:00,
2013-04-05 20:15:00,51.7,37.4,30.05,West,263,0.0,5.0,58,0.00,,,0.00,VWS V14.01,2013-04-06 00:15:00,
2013-04-05 20:20:00,51.4,37.1,30.05,West,263,0.0,5.0,58,0.00,,,0.00,VWS V14.01,2013-04-06 00:20:00,
2013-04-05 20:25:00,51.1,37.3,30.06,West,262,0.0,5.0,59,0.00,,,0.00,VWS V14.01,2013-04-06 00:25:00,
2013-04-05 20:30:00,50.8,37.0,30.06,West,262,0.0,1.0,59,0.00,,,0.00,VWS V14.01,2013-04-06 00:30:00,
2013-04-05 20:35:00,50.5,37.2,30.06,West,259,0.0,4.0,60,0.00,,,0.00,VWS V14.01,2013-04-06 00:35:00,
2013-04-05 20:40:00,50.2,36.9,30.06,West,259,2.0,4.0,60,0.00,,,0.00,VWS V14.01,2013-04-06 00:40:00,
2013-04-05 20:45:00,50.0,36.7,30.06,WSW,257,1.0,4.0,60,0.00,,,0.00,VWS V14.01,2013-04-06 00:45:00,
2013-04-05 20:50:00,50.0,36.7,30.06,WSW,258,2.0,4.0,60,0.00,,,0.00,VWS V14.01,2013-04-06 00:50:00,
2013-04-05 20:55:00,49.9,36.6,30.06,WSW,253,0.0,4.0,60,0.00,,,0.00,VWS V14.01,2013-04-06 00:55:00,
2013-04-05 21:00:00,49.8,36.9,30.07,WSW,248,0.0,2.0,61,0.00,,,0.00,VWS V14.01,2013-04-06 01:00:00,
2013-04-05 21:05:00,49.6,37.1,30.07,WSW,248,0.0,2.0,62,0.00,,,0.00,VWS V14.01,2013-04-06 01:05:00,
2013-04-05 21:10:00,49.2,37.2,30.07,West,261,1.0,3.0,63,0.00,,,0.00,VWS V14.01,2013-04-06 01:10:00,
2013-04-05 21:15:00,49.0,37.0,30.08,West,261,0.0,3.0,63,0.00,,,0.00,VWS V14.01,2013-04-06 01:15:00,
2013-04-05 21:20:00,48.8,37.2,30.08,West,262,0.0,3.0,64,0.00,,,0.00,VWS V14.01,2013-04-06 01:20:00,
2013-04-05 21:25:00,48.5,37.3,30.08,West,262,0.0,3.0,65,0.00,,,0.00,VWS V14.01,2013-04-06 01:25:00,
2013-04-05 21:30:00,48.4,37.2,30.08,West,272,0.0,3.0,65,0.00,,,0.00,VWS V14.01,2013-04-06 01:30:00,
2013-04-05 21:35:00,48.3,37.1,30.08,West,269,1.0,3.0,65,0.00,,,0.00,VWS V14.01,2013-04-06 01:35:00,
2013-04-05 21:40:00,48.2,37.4,30.08,WNW,289,0.0,4.0,66,0.00,,,0.00,VWS V14.01,2013-04-06 01:40:00,
2013-04-05 21:45:00,47.9,37.1,30.08,WNW,288,2.0,4.0,66,0.00,,,0.00,VWS V14.01,2013-04-06 01:45:00,
2013-04-05 21:50:00,47.8,37.0,30.09,WNW,288,2.0,4.0,66,0.00,,,0.00,VWS V14.01,2013-04-06 01:50:00,
2013-04-05 21:55:00,47.7,36.9,30.09,WNW,288,0.0,4.0,66,0.00,,,0.00,VWS V14.01,2013-04-06 01:55:00,
2013-04-05 22:00:00,47.8,37.0,30.09,WNW,288,0.0,2.0,66,0.00,,,0.00,VWS V14.01,2013-04-06 02:00:00,
2013-04-05 22:05:00,47.7,36.9,30.09,WNW,288,0.0,2.0,66,0.00,,,0.00,VWS V14.01,2013-04-06 02:05:00,
2013-04-05 22:10:00,47.5,37.1,30.09,West,277,2.0,4.0,67,0.00,,,0.00,VWS V14.01,2013-04-06 02:10:00,
2013-04-05 22:16:00,47.3,36.9,30.09,West,277,0.0,4.0,67,0.00,,,0.00,VWS V14.01,2013-04-06 02:16:00,
2013-04-05 22:21:00,47.3,36.9,30.09,West,276,0.0,4.0,67,0.00,,,0.00,VWS V14.01,2013-04-06 02:21:00,
2013-04-05 22:26:00,47.4,37.0,30.09,West,273,0.0,4.0,67,0.00,,,0.00,VWS V14.01,2013-04-06 02:26:00,
2013-04-05 22:30:00,48.4,37.2,30.08,West,272,0.0,4.0,65,0.00,,,0.00,VWS V15.00,2013-04-06 02:30:00,
2013-04-05 22:31:00,47.3,36.9,30.09,WNW,288,0.0,2.0,67,0.00,,,0.00,VWS V14.01,2013-04-06 02:31:00,
2013-04-05 22:36:00,47.2,36.8,30.10,WNW,288,0.0,3.0,67,0.00,,,0.00,VWS V14.01,2013-04-06 02:36:00,
2013-04-05 22:41:00,47.2,36.8,30.10,WNW,303,1.0,4.0,67,0.00,,,0.00,VWS V14.01,2013-04-06 02:41:00,
2013-04-05 22:46:00,47.1,36.7,30.10,WSW,258,0.0,4.0,67,0.00,,,0.00,VWS V14.01,2013-04-06 02:46:00,
2013-04-05 22:51:00,46.9,36.5,30.10,West,271,1.0,4.0,67,0.00,,,0.00,VWS V14.01,2013-04-06 02:51:00,
2013-04-05 22:56:00,46.9,36.5,30.10,West,271,0.0,4.0,67,0.00,,,0.00,VWS V14.01,2013-04-06 02:56:00,
2013-04-05 23:00:00,47.8,37.0,30.09,WNW,288,0.0,4.0,66,0.00,,,0.00,VWS V15.00,2013-04-06 03:00:00,
2013-04-05 23:01:00,46.7,37.1,30.10,West,271,0.0,0.0,69,0.00,,,0.00,VWS V14.01,2013-04-06 03:01:00,
2013-04-05 23:06:00,46.0,37.1,30.10,West,271,0.0,0.0,71,0.00,,,0.00,VWS V14.01,2013-04-06 03:06:00,
2013-04-05 23:12:00,45.2,36.7,30.10,West,271,0.0,0.0,72,0.00,,,0.00,VWS V14.01,2013-04-06 03:12:00,
2013-04-05 23:17:00,44.6,36.5,30.10,West,271,0.0,0.0,73,0.00,,,0.00,VWS V14.01,2013-04-06 03:17:00,
2013-04-05 23:22:00,44.2,36.5,30.10,West,271,0.0,0.0,74,0.00,,,0.00,VWS V14.01,2013-04-06 03:22:00,
2013-04-05 23:27:00,43.7,36.6,30.10,West,271,0.0,2.0,76,0.00,,,0.00,VWS V14.01,2013-04-06 03:27:00,
2013-04-05 23:30:00,47.3,36.9,30.10,WNW,284,0.0,4.0,67,0.00,,,0.00,VWS V15.00,2013-04-06 03:30:00,
2013-04-05 23:32:00,43.3,36.6,30.10,West,271,0.0,0.0,77,0.00,,,0.00,VWS V14.01,2013-04-06 03:32:00,
2013-04-05 23:37:00,42.9,36.5,30.10,West,271,0.0,0.0,78,0.00,,,0.00,VWS V14.01,2013-04-06 03:37:00,
2013-04-05 23:42:00,42.6,36.5,30.10,West,271,0.0,3.0,79,0.00,,,0.00,VWS V14.01,2013-04-06 03:42:00,
2013-04-05 23:47:00,42.6,36.5,30.10,West,271,0.0,3.0,79,0.00,,,0.00,VWS V14.01,2013-04-06 03:47:00,
2013-04-05 23:52:00,42.6,36.5,30.11,West,271,0.0,3.0,79,0.00,,,0.00,VWS V14.01,2013-04-06 03:52:00,
2013-04-05 23:57:00,42.6,36.5,30.10,West,271,0.0,3.0,79,0.00,,,0.00,VWS V14.01,2013-04-06 03:57:00,